Flight Track Log - Related Links

Times and Time Zones

All times are in EDT time to prevent confusion due to time zone crossing. See the N677F flight status page for this flight to view local times or setup timezone preferences in your user account.

Time Position Orientation Groundspeed Altitude Reporting Facility
EDT Latitude Longitude Course Direction KTS MPH feet Rate Location/Type
Fri 01:14:27 AM 39.9333 -105.1500 360° North 179 206 6,700  Level Denver TRACON
Fri 01:15:27 AM 39.9833 -105.1500 360° North 229 264 8,800 2,220 Climbing Denver TRACON
Fri 01:16:07 AM 40.0333 -105.1428 North 245 282 10,400 1,723 Climbing Denver Center
Fri 01:17:08 AM 40.0600 -105.0447 70° East 340 391 11,700 2,083 Climbing Denver Center
Fri 01:18:08 AM 39.9622 -104.9894 157° South 375 432 14,600 2,479 Climbing Denver Center
Fri 01:19:09 AM 39.8569 -104.9631 169° South 388 447 16,700 1,918 Climbing Denver Center
Fri 01:20:10 AM 39.7478 -104.9322 168° South 403 464 18,500 1,884 Climbing Denver Center
Fri 01:21:10 AM 39.6308 -104.9011 168° South 428 493 20,500 1,934 Climbing Denver Center
Fri 01:22:11 AM 39.5122 -104.8683 168° South 438 504 22,400 1,983 Climbing Denver Center
Fri 01:23:11 AM 39.3867 -104.8333 168° South 446 513 24,500 1,686 Climbing Denver Center
Fri 01:24:12 AM 39.2892 -104.8056 168° South 454 522 25,800 1,475 Climbing Denver Center
Fri 01:25:13 AM 39.1367 -104.7617 167° South 460 529 27,500 1,587 Climbing Denver Center
Fri 01:26:13 AM 39.0031 -104.7206 167° South 484 557 29,000 1,289 Climbing Denver Center
Fri 01:27:14 AM 38.8700 -104.6669 163° South 496 571 30,100 1,131 Climbing Denver Center
Fri 01:28:15 AM 38.7358 -104.6103 162° South 504 580 31,300 1,091 Climbing Denver Center
Fri 01:29:15 AM 38.5964 -104.5519 162° South 523 602 32,300 1,240 Climbing Denver Center
Fri 01:30:16 AM 38.4572 -104.4942 162° South 526 605 33,800 1,721 Climbing Denver Center
Fri 01:31:17 AM 38.3100 -104.4333 162° South 518 596 35,800 1,835 Climbing Denver Center
Fri 01:32:17 AM 38.1908 -104.3456 150° Southeast 516 594 37,500 1,636 Climbing Denver Center
Fri 01:33:18 AM 38.0567 -104.2356 147° Southeast 513 590 39,100 1,289 Climbing Denver Center
Fri 01:34:18 AM 37.9422 -104.1444 148° Southeast 508 585 40,100 793 Climbing Denver Center
Fri 01:35:19 AM 37.8286 -104.0522 147° Southeast 505 581 40,700 446 Climbing Denver Center
Fri 01:36:19 AM 37.6944 -103.9433 147° Southeast 508 585 41,000 149 Climbing Denver Center
Fri 01:37:20 AM 37.5758 -103.8464 147° Southeast 515 593 41,000  Level Denver Center
Fri 01:38:21 AM 37.4567 -103.7550 149° Southeast 516 594 41,000  Level Denver Center
Fri 01:39:21 AM 37.3417 -103.6647 148° Southeast 510 587 41,000  Level Denver Center
Fri 01:40:14 AM 37.2286 -103.5717 147° Southeast 507 583 41,000  Level Albuquerque Center
Fri 01:41:15 AM 37.1200 -103.4667 142° Southeast 511 588 41,000  Level Albuquerque Center
Fri 01:42:15 AM 37.0106 -103.3611 142° Southeast 517 595 41,000  Level Albuquerque Center
Fri 01:43:16 AM 36.8844 -103.2394 142° Southeast 512 589 41,000  Level Albuquerque Center
Fri 01:44:16 AM 36.7761 -103.1356 142° Southeast 512 589 41,000  Level Albuquerque Center
Fri 01:45:17 AM 36.6661 -103.0314 143° Southeast 517 595 41,000  Level Albuquerque Center
Fri 01:46:17 AM 36.5475 -102.9175 142° Southeast 508 585 41,000  Level Albuquerque Center
Fri 01:47:18 AM 36.4392 -102.8144 143° Southeast 510 587 41,000  Level Albuquerque Center
Fri 01:48:19 AM 36.3250 -102.7081 143° Southeast 513 590 41,000  Level Albuquerque Center
Fri 01:49:19 AM 36.2139 -102.6019 142° Southeast 508 585 41,000  Level Albuquerque Center
Fri 01:50:20 AM 36.1036 -102.5003 143° Southeast 499 574 41,000  Level Albuquerque Center
Fri 01:51:20 AM 35.9931 -102.3914 141° Southeast 503 579 41,000  Level Albuquerque Center
Fri 01:52:21 AM 35.8814 -102.2844 142° Southeast 509 586 41,000  Level Albuquerque Center
Fri 01:53:21 AM 35.7697 -102.1789 143° Southeast 507 583 41,000  Level Albuquerque Center
Fri 01:54:22 AM 35.6583 -102.0714 142° Southeast 508 585 41,000  Level Albuquerque Center
Fri 01:55:23 AM 35.5450 -101.9644 142° Southeast 513 590 41,000  Level Albuquerque Center
Fri 01:56:23 AM 35.4153 -101.8417 142° Southeast 512 589 41,000  Level Albuquerque Center
Fri 01:57:24 AM 35.3033 -101.7347 142° Southeast 509 586 41,000  Level Albuquerque Center
Fri 01:58:24 AM 35.2047 -101.6444 143° Southeast 509 586 41,000  Level Albuquerque Center
Fri 01:59:25 AM 35.0722 -101.5200 142° Southeast 502 578 41,000  Level Albuquerque Center
Fri 02:00:26 AM 34.9619 -101.4172 143° Southeast 501 577 41,000  Level Albuquerque Center
Fri 02:01:26 AM 34.8628 -101.3267 143° Southeast 504 580 41,000  Level Albuquerque Center
Fri 02:02:27 AM 34.7531 -101.2231 142° Southeast 503 579 41,000  Level Albuquerque Center
Fri 02:03:27 AM 34.6442 -101.1222 143° Southeast 495 570 41,000  Level Albuquerque Center
Fri 02:05:00 AM 34.6803 -100.9122 74° East  Level FlightAware Approximate
Fri 02:12:00 AM 34.8933 -99.9225 76° East  Level FlightAware Approximate
Fri 02:13:00 AM 34.9217 -99.7803 76° East  Level FlightAware Approximate
Fri 02:14:00 AM 34.9500 -99.6379 76° East  Level FlightAware Approximate
Fri 02:14:33 AM 33.7300 -99.7942 76° East 477 549 41,000  Level Fort Worth Center
Fri 02:15:00 AM 34.9780 -99.4955 76° East  Level FlightAware Approximate
Fri 02:15:33 AM 33.7172 -99.6336 95° East 479 551 41,000  Level Fort Worth Center
Fri 02:16:00 AM 35.0062 -99.3530 76° East  Level FlightAware Approximate
Fri 02:16:33 AM 33.7022 -99.4725 96° East 482 555 41,000  Level Fort Worth Center
Fri 02:17:00 AM 35.0351 -99.2107 76° East  Level FlightAware Approximate
Fri 02:17:33 AM 33.6881 -99.3156 96° East 473 544 41,000  Level Fort Worth Center
Fri 02:18:00 AM 35.0639 -99.0684 76° East  Level FlightAware Approximate
Fri 02:18:33 AM 33.6719 -99.1578 97° East 476 548 41,000  Level Fort Worth Center
Fri 02:19:00 AM 35.0926 -98.9259 76° East  Level FlightAware Approximate
Fri 02:19:33 AM 33.6556 -98.9969 97° East 484 557 41,000  Level Fort Worth Center
Fri 02:20:33 AM 33.6403 -98.8367 96° East 484 557 41,000  Level Fort Worth Center
Fri 02:21:33 AM 33.6250 -98.6892 97° East 476 548 41,000  Level Fort Worth Center
Fri 02:22:34 AM 33.6092 -98.5303 97° East 481 554 41,000  Level Fort Worth Center
Fri 02:23:34 AM 33.5936 -98.3692 97° East 486 559 41,000  Level Fort Worth Center
Fri 02:24:34 AM 33.5772 -98.2089 97° East 486 559 41,000  Level Fort Worth Center
Fri 02:25:34 AM 33.5614 -98.0492 97° East 484 557 41,000  Level Fort Worth Center
Fri 02:26:34 AM 33.5731 -97.8928 85° East 476 548 41,000  Level Fort Worth Center
Fri 02:27:34 AM 33.6414 -97.7633 58° Northeast 468 539 41,000  Level Fort Worth Center
Fri 02:28:34 AM 33.7450 -97.6836 33° Northeast 457 526 41,000  Level Fort Worth Center
Fri 02:29:34 AM 33.8503 -97.6133 29° Northeast 440 506 41,000  Level Fort Worth Center
Fri 02:30:34 AM 33.9533 -97.5433 29° Northeast 425 489 41,000  Level Fort Worth Center
Fri 02:31:35 AM 34.0567 -97.4761 28° Northeast 423 487 41,000  Level Fort Worth Center
Fri 02:32:35 AM 34.1719 -97.3964 30° Northeast 433 498 41,000 400 Level Fort Worth Center
Fri 02:33:35 AM 34.2756 -97.3261 29° Northeast 429 494 41,800 500 Climbing Fort Worth Center
Fri 02:34:35 AM 34.3786 -97.2586 28° Northeast 423 487 42,000 100 Climbing Fort Worth Center
Fri 02:35:35 AM 34.4800 -97.1933 28° Northeast 415 478 42,000  Level Fort Worth Center
Fri 02:36:35 AM 34.5828 -97.1200 30° Northeast 427 491 42,000  Level Fort Worth Center
Fri 02:37:35 AM 34.6872 -97.0514 28° Northeast 428 493 42,000  Level Fort Worth Center
Fri 02:38:35 AM 34.7947 -96.9778 29° Northeast 441 507 42,000  Level Fort Worth Center
Fri 02:39:36 AM 34.8878 -96.8733 43° Northeast 464 534 42,000  Level Fort Worth Center
Fri 02:40:36 AM 34.9642 -96.7389 55° Northeast 483 556 42,000  Level Fort Worth Center
Fri 02:41:36 AM 35.0406 -96.6081 54° Northeast 479 551 42,000  Level Fort Worth Center
Fri 02:42:36 AM 35.1419 -96.5239 34° Northeast 444 511 42,000  Level Fort Worth Center
Fri 02:43:36 AM 35.2517 -96.4567 27° Northeast 442 509 42,000  Level Fort Worth Center
Fri 02:44:36 AM 35.3622 -96.3878 27° Northeast 446 513 42,000  Level Fort Worth Center
Fri 02:45:36 AM 35.4725 -96.3181 27° Northeast 450 518 42,000  Level Fort Worth Center
Fri 02:46:36 AM 35.5842 -96.2489 27° Northeast 451 519 42,000  Level Fort Worth Center
Fri 02:47:36 AM 35.7133 -96.1700 26° Northeast 455 524 42,000  Level Fort Worth Center
Fri 02:48:36 AM 35.8258 -96.0978 27° Northeast 455 524 42,000  Level Fort Worth Center
Fri 02:49:37 AM 35.9367 -96.0267 27° Northeast 449 517 42,000  Level Fort Worth Center
Fri 02:50:37 AM 36.0483 -95.9564 27° Northeast 448 516 42,000  Level Fort Worth Center
Fri 02:51:37 AM 36.1594 -95.8856 27° Northeast 447 514 42,000  Level Fort Worth Center
Fri 02:52:37 AM 36.2483 -95.8292 27° Northeast 445 512 42,000  Level Fort Worth Center
Fri 02:53:37 AM 36.3600 -95.7578 27° Northeast 445 512 42,000  Level Fort Worth Center
Fri 02:54:44 AM 36.4925 -95.6722 27° Northeast 451 519 42,000  Level Kansas City Center
Fri 02:55:44 AM 36.6119 -95.5969 27° Northeast 455 524 42,000  Level Kansas City Center
Fri 02:56:44 AM 36.7242 -95.5219 28° Northeast 454 522 42,000  Level Kansas City Center
Fri 02:57:45 AM 36.8347 -95.4497 28° Northeast 448 516 42,000  Level Kansas City Center
Fri 02:58:45 AM 36.9439 -95.3767 28° Northeast 443 510 42,000  Level Kansas City Center
Fri 02:59:45 AM 37.0572 -95.3028 27° Northeast 452 520 42,000  Level Kansas City Center
Fri 03:00:45 AM 37.1697 -95.2275 28° Northeast 457 526 42,000  Level Kansas City Center
Fri 03:01:45 AM 37.2808 -95.1533 28° Northeast 453 521 42,000  Level Kansas City Center
Fri 03:02:46 AM 37.3917 -95.0811 27° Northeast 449 517 42,000  Level Kansas City Center
Fri 03:03:46 AM 37.5053 -95.0042 28° Northeast 458 527 42,000  Level Kansas City Center
Fri 03:04:46 AM 37.6214 -94.9281 27° Northeast 465 535 42,000  Level Kansas City Center
Fri 03:05:46 AM 37.7353 -94.8514 28° Northeast 466 536 42,000  Level Kansas City Center
Fri 03:06:46 AM 37.8447 -94.7756 29° Northeast 468 539 42,000  Level Kansas City Center
Fri 03:07:47 AM 37.9522 -94.7039 28° Northeast 461 531 42,000  Level Kansas City Center
Fri 03:08:47 AM 38.0800 -94.6264 26° Northeast 458 527 42,000  Level Kansas City Center
Fri 03:09:47 AM 38.1922 -94.5781 19° North 446 513 42,000  Level Kansas City Center
Fri 03:10:47 AM 38.3067 -94.5747 North 441 507 42,000  Level Kansas City Center
Fri 03:11:47 AM 38.4064 -94.6369 334° Northwest 415 478 42,000  Level Kansas City Center
Fri 03:12:48 AM 38.5206 -94.7092 334° Northwest 410 472 42,000  Level Kansas City Center
Fri 03:13:48 AM 38.6172 -94.7697 334° Northwest 404 465 42,000  Level Kansas City Center
Fri 03:14:48 AM 38.7078 -94.8422 328° Northwest 400 460 42,000  Level Kansas City Center
Fri 03:16:00 AM 38.8055 -94.9838 312° West  Level FlightAware Approximate
Fri 03:16:49 AM 38.9011 -95.0036 312° West 399 459 42,000  Level Kansas City Center
Fri 03:17:49 AM 38.9900 -95.0783 327° Northwest 399 459 42,000  Level Kansas City Center
Fri 03:18:49 AM 39.0903 -95.1625 327° Northwest 398 458 42,000  Level Kansas City Center
Fri 03:19:49 AM 39.1836 -95.2411 327° Northwest 400 460 42,000  Level Kansas City Center
Fri 03:20:49 AM 39.2764 -95.3192 327° Northwest 399 459 42,000  Level Kansas City Center
Fri 03:21:50 AM 39.3722 -95.3981 328° Northwest 405 466 42,000  Level Kansas City Center
Fri 03:22:50 AM 39.4553 -95.4794 323° Northwest 403 464 42,000  Level Kansas City Center
Fri 03:23:50 AM 39.5022 -95.5958 298° West 387 445 42,000  Level Kansas City Center
Fri 03:24:50 AM 39.5144 -95.7500 276° West 386 444 42,000  Level Kansas City Center
Fri 03:25:50 AM 39.5233 -95.8825 275° West 389 448 42,000  Level Kansas City Center
Fri 03:26:51 AM 39.5336 -96.0183 276° West 395 455 42,000  Level Kansas City Center
Fri 03:27:51 AM 39.5433 -96.1525 275° West 394 453 42,000  Level Kansas City Center
Fri 03:28:51 AM 39.5550 -96.3072 276° West 388 447 42,000  Level Kansas City Center
Fri 03:29:51 AM 39.5647 -96.4417 275° West 390 449 42,000  Level Kansas City Center
Fri 03:30:52 AM 39.5750 -96.5764 276° West 392 451 42,000  Level Kansas City Center
Fri 03:31:52 AM 39.5850 -96.7342 275° West 393 452 42,000  Level Kansas City Center
Fri 03:32:52 AM 39.5936 -96.8592 275° West 398 458 42,000  Level Kansas City Center
Fri 03:33:52 AM 39.6025 -97.0036 275° West 400 460 42,000  Level Kansas City Center
Fri 03:34:53 AM 39.6128 -97.1483 275° West 402 463 42,000  Level Kansas City Center
Fri 03:35:53 AM 39.6203 -97.2931 274° West 403 464 42,000  Level Kansas City Center
Fri 03:36:53 AM 39.6289 -97.4375 274° West 402 463 42,000  Level Kansas City Center
Fri 03:37:53 AM 39.6375 -97.5797 275° West 397 457 42,000  Level Kansas City Center
Fri 03:38:32 AM 39.6453 -97.6636 277° West 397 457 42,000  Level Minneapolis Center
Fri 03:40:45 AM 39.6656 -98.0075 274° West 399 459 42,000  Level Minneapolis Center
Fri 03:41:46 AM 39.6739 -98.1503 274° West 398 458 42,000  Level Minneapolis Center
Fri 03:42:46 AM 39.6817 -98.2972 274° West 403 464 42,000  Level Minneapolis Center
Fri 03:43:47 AM 39.6894 -98.4456 274° West 408 470 42,000  Level Minneapolis Center
Fri 03:44:47 AM 39.6983 -98.5936 275° West 410 472 42,000  Level Minneapolis Center
Fri 03:45:48 AM 39.7058 -98.7431 274° West 411 473 42,000  Level Minneapolis Center
Fri 03:46:48 AM 39.7136 -98.8917 274° West 413 475 42,000  Level Minneapolis Center
Fri 03:47:49 AM 39.7211 -99.0422 274° West 414 476 42,000  Level Minneapolis Center
Fri 03:49:02 AM 39.7292 -99.2217 273° West 416 479 42,000  Level Denver Center
Fri 03:50:14 AM 39.7361 -99.3728 273° West 418 481 42,000  Level Denver Center
Fri 03:51:15 AM 39.7450 -99.5519 274° West 415 478 42,000  Level Denver Center
Fri 03:52:15 AM 39.7508 -99.7033 273° West 418 481 42,000  Level Denver Center
Fri 03:53:16 AM 39.7583 -99.8544 274° West 418 481 42,000  Level Denver Center
Fri 03:54:16 AM 39.7639 -100.0039 273° West 416 479 42,000  Level Denver Center
Fri 03:55:17 AM 39.7703 -100.1492 273° West 418 481 42,000  Level Denver Center
Fri 03:56:17 AM 39.7764 -100.3178 273° West 418 481 42,000  Level Denver Center
Fri 03:57:18 AM 39.7822 -100.4617 273° West 416 479 42,000  Level Denver Center
Fri 03:58:18 AM 39.7869 -100.6083 272° West 421 484 42,000  Level Denver Center
Fri 03:59:19 AM 39.7925 -100.7528 273° West 418 481 42,000  Level Denver Center
Fri 04:00:32 AM 39.7978 -100.9186 272° West 412 474 42,000  Level Denver Center
Fri 04:01:32 AM 39.8031 -101.0858 272° West 414 476 42,000  Level Denver Center
Fri 04:02:33 AM 39.8083 -101.2547 272° West 417 480 42,000  Level Denver Center
Fri 04:03:33 AM 39.8128 -101.3964 272° West 410 472 42,000  Level Denver Center
Fri 04:04:34 AM 39.8169 -101.5394 272° West 412 474 42,000  Level Denver Center
Fri 04:05:34 AM 39.8206 -101.6844 272° West 417 480 42,000 -99 Level Denver Center
Fri 04:06:35 AM 39.8247 -101.8544 272° West 421 484 41,800 -787 Descending Denver Center
Fri 04:07:36 AM 39.8286 -101.9972 272° West 414 476 40,400 -1,438 Descending Denver Center
Fri 04:08:36 AM 39.8314 -102.1408 271° West 414 476 38,900 -1,587 Descending Denver Center
Fri 04:09:37 AM 39.8350 -102.3050 272° West 408 470 37,200 -1,587 Descending Denver Center
Fri 04:10:37 AM 39.8386 -102.4417 272° West 397 457 35,700 -1,600 Descending Denver Center
Fri 04:11:37 AM 39.8403 -102.5806 271° West 400 460 34,000 -1,785 Descending Denver Center
Fri 04:12:38 AM 39.8442 -102.7228 272° West 414 476 32,100 -1,934 Descending Denver Center
Fri 04:13:38 AM 39.8444 -102.8758 270° West 424 488 30,100 -2,182 Descending Denver Center
Fri 04:14:39 AM 39.8481 -103.0656 271° West 438 504 27,700 -2,182 Descending Denver Center
Fri 04:15:39 AM 39.8494 -103.2183 271° West 426 490 25,700 -1,983 Descending Denver Center
Fri 04:16:40 AM 39.8525 -103.3681 272° West 416 479 23,700 -1,835 Descending Denver Center
Fri 04:17:40 AM 39.8536 -103.5117 271° West 402 463 22,000 -1,736 Descending Denver Center
Fri 04:18:41 AM 39.8547 -103.6503 271° West 389 448 20,200 -1,785 Descending Denver Center
Fri 04:19:41 AM 39.8569 -103.7869 271° West 393 452 18,400 -1,587 Descending Denver Center
Fri 04:20:42 AM 39.8575 -103.9200 270° West 370 426 17,000 -1,636 Descending Denver Center
Fri 04:21:42 AM 39.8583 -104.0536 271° West 368 423 15,100 -1,934 Descending Denver Center
Fri 04:22:43 AM 39.8594 -104.1953 271° West 366 421 13,100 -1,934 Descending Denver Center
Fri 04:23:43 AM 39.8597 -104.3233 270° West 356 410 11,200 -992 Descending Denver Center
Fri 04:24:44 AM 39.8600 -104.4147 270° West 332 382 11,100 -50 Descending Denver Center
Fri 04:25:44 AM 39.8606 -104.5594 270° West 326 375 11,100 -397 Level Denver Center
Fri 04:26:45 AM 39.8608 -104.6708 270° West 312 359 10,300 -1,091 Descending Denver Center
Fri 04:27:45 AM 39.8606 -104.7800 270° West 289 333 8,900 -1,091 Descending Denver Center
Fri 04:28:46 AM 39.8606 -104.8706 270° West 281 323 8,100 -787 Descending Denver Center

Login

Don't have an account? Register now (free) for customized features, flight alerts, and more!